sensor_id;sensor_type;location;lat;lon;timestamp;P1;durP1;ratioP1;P2;durP2;ratioP2
2940;SDS011;1480;51.456;6.670;2022-11-15T00:01:14;13.63;;;10.93;;
2940;SDS011;1480;51.456;6.670;2022-11-15T00:04:02;14.83;;;11.30;;
2940;SDS011;1480;51.456;6.670;2022-11-15T00:06:48;15.53;;;11.90;;
2940;SDS011;1480;51.456;6.670;2022-11-15T00:09:33;22.10;;;11.97;;
2940;SDS011;1480;51.456;6.670;2022-11-15T00:12:19;15.93;;;11.00;;
2940;SDS011;1480;51.456;6.670;2022-11-15T00:15:06;14.10;;;10.87;;
2940;SDS011;1480;51.456;6.670;2022-11-15T00:17:52;15.13;;;10.50;;
2940;SDS011;1480;51.456;6.670;2022-11-15T00:20:38;15.27;;;10.50;;
2940;SDS011;1480;51.456;6.670;2022-11-15T00:23:24;13.63;;;10.90;;
2940;SDS011;1480;51.456;6.670;2022-11-15T00:26:10;14.00;;;10.10;;
2940;SDS011;1480;51.456;6.670;2022-11-15T00:28:57;11.30;;;9.57;;
2940;SDS011;1480;51.456;6.670;2022-11-15T00:31:44;14.00;;;10.47;;
2940;SDS011;1480;51.456;6.670;2022-11-15T00:34:29;14.03;;;9.90;;
2940;SDS011;1480;51.456;6.670;2022-11-15T00:37:15;12.53;;;10.40;;
2940;SDS011;1480;51.456;6.670;2022-11-15T00:40:00;13.30;;;10.40;;
2940;SDS011;1480;51.456;6.670;2022-11-15T00:42:46;14.03;;;8.87;;
2940;SDS011;1480;51.456;6.670;2022-11-15T00:45:31;14.10;;;9.60;;
2940;SDS011;1480;51.456;6.670;2022-11-15T00:48:18;14.57;;;10.83;;
2940;SDS011;1480;51.456;6.670;2022-11-15T00:51:04;14.60;;;11.60;;
2940;SDS011;1480;51.456;6.670;2022-11-15T00:53:50;13.83;;;10.40;;
2940;SDS011;1480;51.456;6.670;2022-11-15T00:56:35;14.83;;;10.80;;
2940;SDS011;1480;51.456;6.670;2022-11-15T00:59:21;14.37;;;10.30;;
2940;SDS011;1480;51.456;6.670;2022-11-15T01:02:06;18.37;;;11.37;;
2940;SDS011;1480;51.456;6.670;2022-11-15T01:04:53;12.17;;;10.00;;
2940;SDS011;1480;51.456;6.670;2022-11-15T01:07:38;14.57;;;11.50;;
2940;SDS011;1480;51.456;6.670;2022-11-15T01:10:24;15.57;;;11.40;;
2940;SDS011;1480;51.456;6.670;2022-11-15T01:13:10;13.53;;;11.77;;
2940;SDS011;1480;51.456;6.670;2022-11-15T01:15:55;15.63;;;10.70;;
2940;SDS011;1480;51.456;6.670;2022-11-15T01:18:40;11.33;;;9.80;;
2940;SDS011;1480;51.456;6.670;2022-11-15T01:21:27;12.60;;;10.07;;
2940;SDS011;1480;51.456;6.670;2022-11-15T01:24:13;14.90;;;10.60;;
2940;SDS011;1480;51.456;6.670;2022-11-15T01:26:58;10.90;;;9.80;;
2940;SDS011;1480;51.456;6.670;2022-11-15T01:29:44;11.43;;;9.60;;
2940;SDS011;1480;51.456;6.670;2022-11-15T01:32:29;15.30;;;10.80;;
2940;SDS011;1480;51.456;6.670;2022-11-15T01:35:15;13.03;;;9.63;;
2940;SDS011;1480;51.456;6.670;2022-11-15T01:38:02;12.13;;;9.47;;
2940;SDS011;1480;51.456;6.670;2022-11-15T01:40:48;16.70;;;9.50;;
2940;SDS011;1480;51.456;6.670;2022-11-15T01:43:34;10.90;;;8.50;;
2940;SDS011;1480;51.456;6.670;2022-11-15T01:46:25;14.60;;;9.10;;
2940;SDS011;1480;51.456;6.670;2022-11-15T01:49:14;12.70;;;9.33;;
2940;SDS011;1480;51.456;6.670;2022-11-15T01:52:02;12.07;;;8.47;;
2940;SDS011;1480;51.456;6.670;2022-11-15T01:54:54;11.53;;;9.13;;
2940;SDS011;1480;51.456;6.670;2022-11-15T01:57:45;13.57;;;9.87;;
2940;SDS011;1480;51.456;6.670;2022-11-15T02:00:33;12.87;;;8.80;;
2940;SDS011;1480;51.456;6.670;2022-11-15T02:03:19;10.73;;;8.57;;
2940;SDS011;1480;51.456;6.670;2022-11-15T02:06:10;10.50;;;8.60;;
2940;SDS011;1480;51.456;6.670;2022-11-15T02:08:55;10.00;;;8.57;;
2940;SDS011;1480;51.456;6.670;2022-11-15T02:11:43;13.57;;;8.80;;
2940;SDS011;1480;51.456;6.670;2022-11-15T02:14:29;13.57;;;9.13;;
2940;SDS011;1480;51.456;6.670;2022-11-15T02:17:23;12.50;;;8.77;;
2940;SDS011;1480;51.456;6.670;2022-11-15T02:20:35;13.03;;;8.73;;
2940;SDS011;1480;51.456;6.670;2022-11-15T02:30:24;10.30;;;9.30;;
2940;SDS011;1480;51.456;6.670;2022-11-15T02:33:14;10.47;;;9.30;;
2940;SDS011;1480;51.456;6.670;2022-11-15T02:36:09;13.10;;;9.13;;
2940;SDS011;1480;51.456;6.670;2022-11-15T02:39:02;15.03;;;9.60;;
2940;SDS011;1480;51.456;6.670;2022-11-15T02:41:53;10.77;;;8.90;;
2940;SDS011;1480;51.456;6.670;2022-11-15T02:44:43;11.23;;;9.43;;
2940;SDS011;1480;51.456;6.670;2022-11-15T02:47:31;13.73;;;9.17;;
2940;SDS011;1480;51.456;6.670;2022-11-15T02:50:23;10.60;;;8.80;;
2940;SDS011;1480;51.456;6.670;2022-11-15T02:53:10;12.47;;;8.47;;
2940;SDS011;1480;51.456;6.670;2022-11-15T02:55:56;11.80;;;10.17;;
2940;SDS011;1480;51.456;6.670;2022-11-15T02:58:55;11.70;;;9.00;;
2940;SDS011;1480;51.456;6.670;2022-11-15T03:01:58;10.20;;;8.60;;
2940;SDS011;1480;51.456;6.670;2022-11-15T03:04:57;9.73;;;8.30;;
2940;SDS011;1480;51.456;6.670;2022-11-15T03:07:50;11.50;;;9.50;;
2940;SDS011;1480;51.456;6.670;2022-11-15T03:10:42;10.73;;;7.60;;
2940;SDS011;1480;51.456;6.670;2022-11-15T03:13:33;11.53;;;9.40;;
2940;SDS011;1480;51.456;6.670;2022-11-15T03:16:24;12.83;;;8.60;;
2940;SDS011;1480;51.456;6.670;2022-11-15T03:19:17;12.87;;;9.03;;
2940;SDS011;1480;51.456;6.670;2022-11-15T03:22:12;11.10;;;9.40;;
2940;SDS011;1480;51.456;6.670;2022-11-15T03:25:02;16.30;;;10.80;;
2940;SDS011;1480;51.456;6.670;2022-11-15T03:27:51;15.20;;;9.63;;
2940;SDS011;1480;51.456;6.670;2022-11-15T03:30:39;13.07;;;10.03;;
2940;SDS011;1480;51.456;6.670;2022-11-15T03:33:26;15.10;;;9.90;;
2940;SDS011;1480;51.456;6.670;2022-11-15T03:36:12;17.00;;;9.70;;
2940;SDS011;1480;51.456;6.670;2022-11-15T03:39:00;15.83;;;10.13;;
2940;SDS011;1480;51.456;6.670;2022-11-15T03:41:53;18.73;;;10.97;;
2940;SDS011;1480;51.456;6.670;2022-11-15T03:44:51;12.80;;;10.03;;
2940;SDS011;1480;51.456;6.670;2022-11-15T03:47:43;14.83;;;10.20;;
2940;SDS011;1480;51.456;6.670;2022-11-15T03:50:32;15.40;;;11.47;;
2940;SDS011;1480;51.456;6.670;2022-11-15T03:53:18;15.67;;;10.30;;
2940;SDS011;1480;51.456;6.670;2022-11-15T03:56:05;11.60;;;10.40;;
2940;SDS011;1480;51.456;6.670;2022-11-15T03:58:51;18.50;;;10.60;;
2940;SDS011;1480;51.456;6.670;2022-11-15T04:01:36;13.63;;;10.33;;
2940;SDS011;1480;51.456;6.670;2022-11-15T04:04:22;13.90;;;9.77;;
2940;SDS011;1480;51.456;6.670;2022-11-15T04:07:08;11.30;;;9.27;;
2940;SDS011;1480;51.456;6.670;2022-11-15T04:09:53;12.30;;;9.53;;
2940;SDS011;1480;51.456;6.670;2022-11-15T04:12:49;11.03;;;9.53;;
2940;SDS011;1480;51.456;6.670;2022-11-15T04:15:34;12.53;;;9.00;;
2940;SDS011;1480;51.456;6.670;2022-11-15T04:18:20;11.10;;;9.33;;
2940;SDS011;1480;51.456;6.670;2022-11-15T04:21:06;16.47;;;9.97;;
2940;SDS011;1480;51.456;6.670;2022-11-15T04:24:10;9.77;;;8.37;;
2940;SDS011;1480;51.456;6.670;2022-11-15T04:26:58;12.20;;;7.93;;
2940;SDS011;1480;51.456;6.670;2022-11-15T04:29:45;14.20;;;9.30;;
2940;SDS011;1480;51.456;6.670;2022-11-15T04:32:31;10.27;;;8.87;;
2940;SDS011;1480;51.456;6.670;2022-11-15T04:35:17;11.97;;;8.60;;
2940;SDS011;1480;51.456;6.670;2022-11-15T04:38:03;12.40;;;9.27;;
2940;SDS011;1480;51.456;6.670;2022-11-15T04:40:49;18.67;;;10.03;;
2940;SDS011;1480;51.456;6.670;2022-11-15T04:43:34;14.33;;;11.30;;
2940;SDS011;1480;51.456;6.670;2022-11-15T04:46:21;16.40;;;9.33;;
2940;SDS011;1480;51.456;6.670;2022-11-15T04:49:07;12.57;;;10.20;;
2940;SDS011;1480;51.456;6.670;2022-11-15T04:51:52;13.60;;;10.40;;
2940;SDS011;1480;51.456;6.670;2022-11-15T04:54:38;16.83;;;10.20;;
2940;SDS011;1480;51.456;6.670;2022-11-15T04:57:25;11.60;;;8.43;;
2940;SDS011;1480;51.456;6.670;2022-11-15T05:00:12;15.33;;;8.73;;
2940;SDS011;1480;51.456;6.670;2022-11-15T05:03:00;12.10;;;8.10;;
2940;SDS011;1480;51.456;6.670;2022-11-15T05:06:03;10.87;;;8.67;;
2940;SDS011;1480;51.456;6.670;2022-11-15T05:08:50;11.47;;;8.33;;
2940;SDS011;1480;51.456;6.670;2022-11-15T05:11:35;12.33;;;8.13;;
2940;SDS011;1480;51.456;6.670;2022-11-15T05:14:21;13.20;;;8.47;;
2940;SDS011;1480;51.456;6.670;2022-11-15T05:17:06;11.63;;;7.93;;
2940;SDS011;1480;51.456;6.670;2022-11-15T05:19:53;11.17;;;8.60;;
2940;SDS011;1480;51.456;6.670;2022-11-15T05:22:39;11.07;;;8.53;;
2940;SDS011;1480;51.456;6.670;2022-11-15T05:25:24;10.80;;;9.03;;
2940;SDS011;1480;51.456;6.670;2022-11-15T05:28:10;11.77;;;8.70;;
2940;SDS011;1480;51.456;6.670;2022-11-15T05:30:59;13.37;;;9.70;;
2940;SDS011;1480;51.456;6.670;2022-11-15T05:33:45;12.60;;;9.43;;
2940;SDS011;1480;51.456;6.670;2022-11-15T05:36:33;9.13;;;8.20;;
2940;SDS011;1480;51.456;6.670;2022-11-15T05:39:21;10.10;;;8.83;;
2940;SDS011;1480;51.456;6.670;2022-11-15T05:42:07;11.63;;;9.83;;
2940;SDS011;1480;51.456;6.670;2022-11-15T05:44:55;11.77;;;9.13;;
2940;SDS011;1480;51.456;6.670;2022-11-15T05:47:42;12.40;;;9.20;;
2940;SDS011;1480;51.456;6.670;2022-11-15T05:50:28;14.33;;;9.87;;
2940;SDS011;1480;51.456;6.670;2022-11-15T05:53:16;11.30;;;8.87;;
2940;SDS011;1480;51.456;6.670;2022-11-15T05:56:05;10.87;;;7.63;;
2940;SDS011;1480;51.456;6.670;2022-11-15T05:58:51;11.80;;;7.93;;
2940;SDS011;1480;51.456;6.670;2022-11-15T06:01:38;11.07;;;7.67;;
2940;SDS011;1480;51.456;6.670;2022-11-15T06:04:24;11.37;;;8.17;;
2940;SDS011;1480;51.456;6.670;2022-11-15T06:07:09;9.60;;;8.03;;
2940;SDS011;1480;51.456;6.670;2022-11-15T06:09:56;9.90;;;7.80;;
2940;SDS011;1480;51.456;6.670;2022-11-15T06:12:42;10.83;;;8.00;;
2940;SDS011;1480;51.456;6.670;2022-11-15T06:15:27;10.73;;;8.50;;
2940;SDS011;1480;51.456;6.670;2022-11-15T06:18:13;14.70;;;8.47;;
2940;SDS011;1480;51.456;6.670;2022-11-15T06:20:59;9.70;;;7.93;;
2940;SDS011;1480;51.456;6.670;2022-11-15T06:23:45;10.37;;;8.20;;
2940;SDS011;1480;51.456;6.670;2022-11-15T06:26:32;12.30;;;9.40;;
2940;SDS011;1480;51.456;6.670;2022-11-15T06:29:17;14.43;;;9.40;;
2940;SDS011;1480;51.456;6.670;2022-11-15T06:32:03;12.90;;;9.87;;
2940;SDS011;1480;51.456;6.670;2022-11-15T06:34:48;13.00;;;9.73;;
2940;SDS011;1480;51.456;6.670;2022-11-15T06:37:34;11.23;;;7.77;;
2940;SDS011;1480;51.456;6.670;2022-11-15T06:40:20;13.77;;;9.43;;
2940;SDS011;1480;51.456;6.670;2022-11-15T06:43:06;10.30;;;8.47;;
2940;SDS011;1480;51.456;6.670;2022-11-15T06:45:52;9.03;;;8.13;;
2940;SDS011;1480;51.456;6.670;2022-11-15T06:48:37;10.33;;;7.37;;
2940;SDS011;1480;51.456;6.670;2022-11-15T06:51:23;13.80;;;6.97;;
2940;SDS011;1480;51.456;6.670;2022-11-15T06:54:09;9.07;;;6.77;;
2940;SDS011;1480;51.456;6.670;2022-11-15T06:56:55;10.10;;;7.40;;
2940;SDS011;1480;51.456;6.670;2022-11-15T06:59:42;10.43;;;6.83;;
2940;SDS011;1480;51.456;6.670;2022-11-15T07:02:27;7.43;;;6.30;;
2940;SDS011;1480;51.456;6.670;2022-11-15T07:05:13;8.17;;;6.37;;
2940;SDS011;1480;51.456;6.670;2022-11-15T07:07:59;9.40;;;6.87;;
2940;SDS011;1480;51.456;6.670;2022-11-15T07:10:44;9.70;;;7.10;;
2940;SDS011;1480;51.456;6.670;2022-11-15T07:13:31;8.33;;;6.47;;
2940;SDS011;1480;51.456;6.670;2022-11-15T07:16:18;8.87;;;6.23;;
2940;SDS011;1480;51.456;6.670;2022-11-15T07:19:04;8.90;;;6.40;;
2940;SDS011;1480;51.456;6.670;2022-11-15T07:21:49;7.17;;;4.90;;
2940;SDS011;1480;51.456;6.670;2022-11-15T07:24:35;11.13;;;5.50;;
2940;SDS011;1480;51.456;6.670;2022-11-15T07:27:20;6.93;;;5.27;;
2940;SDS011;1480;51.456;6.670;2022-11-15T07:30:06;5.47;;;4.53;;
2940;SDS011;1480;51.456;6.670;2022-11-15T07:32:55;5.30;;;4.30;;
2940;SDS011;1480;51.456;6.670;2022-11-15T07:35:40;6.17;;;3.87;;
2940;SDS011;1480;51.456;6.670;2022-11-15T07:38:26;6.70;;;4.37;;
2940;SDS011;1480;51.456;6.670;2022-11-15T07:41:11;4.97;;;3.60;;
2940;SDS011;1480;51.456;6.670;2022-11-15T07:43:57;4.90;;;3.73;;
2940;SDS011;1480;51.456;6.670;2022-11-15T07:46:42;6.10;;;4.33;;
2940;SDS011;1480;51.456;6.670;2022-11-15T07:49:29;7.87;;;5.27;;
2940;SDS011;1480;51.456;6.670;2022-11-15T07:52:15;7.33;;;5.00;;
2940;SDS011;1480;51.456;6.670;2022-11-15T07:55:00;5.40;;;3.63;;
2940;SDS011;1480;51.456;6.670;2022-11-15T07:57:46;4.77;;;3.33;;
2940;SDS011;1480;51.456;6.670;2022-11-15T08:00:32;3.77;;;2.80;;
2940;SDS011;1480;51.456;6.670;2022-11-15T08:03:17;3.97;;;2.17;;
2940;SDS011;1480;51.456;6.670;2022-11-15T08:06:05;2.33;;;1.50;;
2940;SDS011;1480;51.456;6.670;2022-11-15T08:08:50;3.90;;;1.40;;
2940;SDS011;1480;51.456;6.670;2022-11-15T08:11:36;3.13;;;1.60;;
2940;SDS011;1480;51.456;6.670;2022-11-15T08:14:22;4.90;;;1.40;;
2940;SDS011;1480;51.456;6.670;2022-11-15T08:17:07;3.40;;;1.47;;
2940;SDS011;1480;51.456;6.670;2022-11-15T08:19:52;3.33;;;1.50;;
2940;SDS011;1480;51.456;6.670;2022-11-15T08:22:39;4.33;;;1.97;;
2940;SDS011;1480;51.456;6.670;2022-11-15T08:25:25;3.47;;;1.57;;
2940;SDS011;1480;51.456;6.670;2022-11-15T08:28:12;3.13;;;1.93;;
2940;SDS011;1480;51.456;6.670;2022-11-15T08:30:57;2.00;;;1.30;;
2940;SDS011;1480;51.456;6.670;2022-11-15T08:33:43;2.50;;;1.63;;
2940;SDS011;1480;51.456;6.670;2022-11-15T08:36:29;3.20;;;1.50;;
2940;SDS011;1480;51.456;6.670;2022-11-15T08:39:16;3.40;;;1.90;;
2940;SDS011;1480;51.456;6.670;2022-11-15T08:42:01;2.40;;;1.70;;
2940;SDS011;1480;51.456;6.670;2022-11-15T08:44:46;5.53;;;2.10;;
2940;SDS011;1480;51.456;6.670;2022-11-15T08:47:32;2.80;;;1.47;;
2940;SDS011;1480;51.456;6.670;2022-11-15T08:50:18;2.93;;;1.90;;
2940;SDS011;1480;51.456;6.670;2022-11-15T08:53:04;3.40;;;2.10;;
2940;SDS011;1480;51.456;6.670;2022-11-15T08:55:51;2.67;;;2.37;;
2940;SDS011;1480;51.456;6.670;2022-11-15T08:58:37;6.07;;;3.60;;
2940;SDS011;1480;51.456;6.670;2022-11-15T09:01:23;4.30;;;3.03;;
2940;SDS011;1480;51.456;6.670;2022-11-15T09:04:08;4.03;;;2.30;;
2940;SDS011;1480;51.456;6.670;2022-11-15T09:06:54;5.40;;;3.50;;
2940;SDS011;1480;51.456;6.670;2022-11-15T09:09:40;5.50;;;2.57;;
2940;SDS011;1480;51.456;6.670;2022-11-15T09:12:28;4.90;;;2.80;;
2940;SDS011;1480;51.456;6.670;2022-11-15T09:15:13;7.27;;;3.77;;
2940;SDS011;1480;51.456;6.670;2022-11-15T09:18:00;11.33;;;3.50;;
2940;SDS011;1480;51.456;6.670;2022-11-15T09:20:45;16.23;;;3.20;;
2940;SDS011;1480;51.456;6.670;2022-11-15T09:23:31;5.97;;;2.60;;
2940;SDS011;1480;51.456;6.670;2022-11-15T09:26:16;3.37;;;2.23;;
2940;SDS011;1480;51.456;6.670;2022-11-15T09:29:04;8.63;;;2.70;;
2940;SDS011;1480;51.456;6.670;2022-11-15T09:31:51;4.10;;;3.53;;
2940;SDS011;1480;51.456;6.670;2022-11-15T09:34:37;3.27;;;2.80;;
2940;SDS011;1480;51.456;6.670;2022-11-15T09:37:22;4.70;;;2.73;;
2940;SDS011;1480;51.456;6.670;2022-11-15T09:40:08;4.40;;;2.50;;
2940;SDS011;1480;51.456;6.670;2022-11-15T09:43:03;8.37;;;2.80;;
2940;SDS011;1480;51.456;6.670;2022-11-15T09:45:57;4.10;;;2.63;;
2940;SDS011;1480;51.456;6.670;2022-11-15T09:49:12;12.17;;;3.17;;
2940;SDS011;1480;51.456;6.670;2022-11-15T09:51:59;4.83;;;2.33;;
2940;SDS011;1480;51.456;6.670;2022-11-15T09:54:28;4.90;;;2.87;;
2940;SDS011;1480;51.456;6.670;2022-11-15T09:57:02;3.43;;;2.60;;
2940;SDS011;1480;51.456;6.670;2022-11-15T09:59:37;4.83;;;3.57;;
2940;SDS011;1480;51.456;6.670;2022-11-15T10:02:19;4.87;;;4.13;;
2940;SDS011;1480;51.456;6.670;2022-11-15T10:05:03;4.20;;;3.17;;
2940;SDS011;1480;51.456;6.670;2022-11-15T10:07:32;4.70;;;3.57;;
2940;SDS011;1480;51.456;6.670;2022-11-15T10:10:09;5.53;;;3.27;;
2940;SDS011;1480;51.456;6.670;2022-11-15T10:12:41;3.83;;;2.80;;
2940;SDS011;1480;51.456;6.670;2022-11-15T10:15:13;7.67;;;3.83;;
2940;SDS011;1480;51.456;6.670;2022-11-15T10:17:58;4.73;;;2.67;;
2940;SDS011;1480;51.456;6.670;2022-11-15T10:20:34;7.30;;;2.27;;
2940;SDS011;1480;51.456;6.670;2022-11-15T10:23:10;4.67;;;2.50;;
2940;SDS011;1480;51.456;6.670;2022-11-15T10:25:40;5.23;;;2.40;;
2940;SDS011;1480;51.456;6.670;2022-11-15T10:28:09;4.00;;;2.13;;
2940;SDS011;1480;51.456;6.670;2022-11-15T10:30:41;2.90;;;2.20;;
2940;SDS011;1480;51.456;6.670;2022-11-15T10:33:13;5.43;;;2.90;;
2940;SDS011;1480;51.456;6.670;2022-11-15T10:35:47;3.10;;;1.83;;
2940;SDS011;1480;51.456;6.670;2022-11-15T10:38:14;3.20;;;1.90;;
2940;SDS011;1480;51.456;6.670;2022-11-15T10:40:41;6.10;;;2.90;;
2940;SDS011;1480;51.456;6.670;2022-11-15T10:43:14;4.63;;;1.90;;
2940;SDS011;1480;51.456;6.670;2022-11-15T10:45:43;3.30;;;1.97;;
2940;SDS011;1480;51.456;6.670;2022-11-15T10:48:24;5.00;;;2.43;;
2940;SDS011;1480;51.456;6.670;2022-11-15T10:50:52;3.50;;;1.70;;
2940;SDS011;1480;51.456;6.670;2022-11-15T10:53:21;2.97;;;1.87;;
2940;SDS011;1480;51.456;6.670;2022-11-15T10:55:58;3.33;;;1.70;;
2940;SDS011;1480;51.456;6.670;2022-11-15T10:58:31;3.47;;;1.60;;
2940;SDS011;1480;51.456;6.670;2022-11-15T11:01:14;2.30;;;1.50;;
2940;SDS011;1480;51.456;6.670;2022-11-15T11:03:45;4.83;;;2.10;;
2940;SDS011;1480;51.456;6.670;2022-11-15T11:06:24;4.90;;;2.37;;
2940;SDS011;1480;51.456;6.670;2022-11-15T11:08:55;4.13;;;2.30;;
2940;SDS011;1480;51.456;6.670;2022-11-15T11:11:23;3.80;;;1.93;;
2940;SDS011;1480;51.456;6.670;2022-11-15T11:13:50;6.63;;;2.60;;
2940;SDS011;1480;51.456;6.670;2022-11-15T11:16:36;3.53;;;1.70;;
2940;SDS011;1480;51.456;6.670;2022-11-15T11:19:23;3.97;;;2.70;;
2940;SDS011;1480;51.456;6.670;2022-11-15T11:22:13;8.60;;;2.47;;
2940;SDS011;1480;51.456;6.670;2022-11-15T11:24:48;4.50;;;2.37;;
2940;SDS011;1480;51.456;6.670;2022-11-15T11:27:29;3.10;;;2.10;;
2940;SDS011;1480;51.456;6.670;2022-11-15T11:30:06;9.13;;;1.87;;
2940;SDS011;1480;51.456;6.670;2022-11-15T11:33:00;5.23;;;2.00;;
2940;SDS011;1480;51.456;6.670;2022-11-15T11:35:42;5.20;;;2.30;;
2940;SDS011;1480;51.456;6.670;2022-11-15T11:38:21;6.23;;;2.23;;
2940;SDS011;1480;51.456;6.670;2022-11-15T11:41:00;3.40;;;1.60;;
2940;SDS011;1480;51.456;6.670;2022-11-15T11:43:36;2.30;;;1.67;;
2940;SDS011;1480;51.456;6.670;2022-11-15T11:46:24;3.50;;;1.80;;
2940;SDS011;1480;51.456;6.670;2022-11-15T11:49:06;2.23;;;1.70;;
2940;SDS011;1480;51.456;6.670;2022-11-15T11:51:38;6.10;;;1.93;;
2940;SDS011;1480;51.456;6.670;2022-11-15T11:54:11;3.43;;;1.40;;
2940;SDS011;1480;51.456;6.670;2022-11-15T11:56:44;3.20;;;1.83;;
2940;SDS011;1480;51.456;6.670;2022-11-15T11:59:12;2.63;;;1.40;;
2940;SDS011;1480;51.456;6.670;2022-11-15T12:01:46;9.03;;;1.60;;
2940;SDS011;1480;51.456;6.670;2022-11-15T12:04:14;3.67;;;1.80;;
2940;SDS011;1480;51.456;6.670;2022-11-15T12:06:47;4.27;;;1.50;;
2940;SDS011;1480;51.456;6.670;2022-11-15T12:09:17;3.90;;;1.47;;
2940;SDS011;1480;51.456;6.670;2022-11-15T12:11:50;2.17;;;1.37;;
2940;SDS011;1480;51.456;6.670;2022-11-15T12:14:33;4.43;;;1.50;;
2940;SDS011;1480;51.456;6.670;2022-11-15T12:17:04;5.60;;;1.67;;
2940;SDS011;1480;51.456;6.670;2022-11-15T12:19:31;3.70;;;1.43;;
2940;SDS011;1480;51.456;6.670;2022-11-15T12:22:02;1.90;;;1.23;;
2940;SDS011;1480;51.456;6.670;2022-11-15T12:24:34;2.27;;;1.40;;
2940;SDS011;1480;51.456;6.670;2022-11-15T12:27:06;5.13;;;1.50;;
2940;SDS011;1480;51.456;6.670;2022-11-15T12:29:43;3.63;;;1.27;;
2940;SDS011;1480;51.456;6.670;2022-11-15T12:32:16;1.80;;;1.37;;
2940;SDS011;1480;51.456;6.670;2022-11-15T12:34:51;4.27;;;1.40;;
2940;SDS011;1480;51.456;6.670;2022-11-15T12:40:22;4.77;;;1.90;;
2940;SDS011;1480;51.456;6.670;2022-11-15T12:42:59;3.40;;;1.53;;
2940;SDS011;1480;51.456;6.670;2022-11-15T12:45:31;6.87;;;1.87;;
2940;SDS011;1480;51.456;6.670;2022-11-15T12:57:31;4.00;;;1.70;;
2940;SDS011;1480;51.456;6.670;2022-11-15T13:00:00;5.27;;;1.40;;
2940;SDS011;1480;51.456;6.670;2022-11-15T13:02:32;3.10;;;1.43;;
2940;SDS011;1480;51.456;6.670;2022-11-15T13:08:01;3.77;;;1.40;;
2940;SDS011;1480;51.456;6.670;2022-11-15T13:10:30;3.93;;;1.33;;
2940;SDS011;1480;51.456;6.670;2022-11-15T13:12:59;3.83;;;1.23;;
2940;SDS011;1480;51.456;6.670;2022-11-15T13:15:31;8.03;;;1.60;;
2940;SDS011;1480;51.456;6.670;2022-11-15T13:20:52;3.13;;;1.20;;
2940;SDS011;1480;51.456;6.670;2022-11-15T13:23:20;2.70;;;1.17;;
2940;SDS011;1480;51.456;6.670;2022-11-15T13:25:52;3.33;;;1.20;;
2940;SDS011;1480;51.456;6.670;2022-11-15T13:28:31;3.77;;;1.67;;
2940;SDS011;1480;51.456;6.670;2022-11-15T13:31:00;3.83;;;1.30;;
2940;SDS011;1480;51.456;6.670;2022-11-15T13:33:30;2.80;;;0.90;;
2940;SDS011;1480;51.456;6.670;2022-11-15T13:35:59;7.30;;;1.83;;
2940;SDS011;1480;51.456;6.670;2022-11-15T13:38:30;6.90;;;1.63;;
2940;SDS011;1480;51.456;6.670;2022-11-15T13:41:10;6.30;;;1.47;;
2940;SDS011;1480;51.456;6.670;2022-11-15T13:43:43;5.90;;;1.67;;
2940;SDS011;1480;51.456;6.670;2022-11-15T13:46:11;3.00;;;1.33;;
2940;SDS011;1480;51.456;6.670;2022-11-15T13:48:40;4.10;;;1.50;;
2940;SDS011;1480;51.456;6.670;2022-11-15T13:51:10;3.47;;;1.37;;
2940;SDS011;1480;51.456;6.670;2022-11-15T13:53:44;5.00;;;2.03;;
2940;SDS011;1480;51.456;6.670;2022-11-15T13:56:15;4.33;;;1.40;;
2940;SDS011;1480;51.456;6.670;2022-11-15T13:58:42;5.30;;;1.20;;
2940;SDS011;1480;51.456;6.670;2022-11-15T14:01:13;6.10;;;1.27;;
2940;SDS011;1480;51.456;6.670;2022-11-15T14:03:46;3.57;;;1.20;;
2940;SDS011;1480;51.456;6.670;2022-11-15T14:06:17;11.40;;;1.50;;
2940;SDS011;1480;51.456;6.670;2022-11-15T14:08:58;5.83;;;1.40;;
2940;SDS011;1480;51.456;6.670;2022-11-15T14:11:28;8.00;;;1.33;;
2940;SDS011;1480;51.456;6.670;2022-11-15T14:14:02;2.70;;;1.23;;
2940;SDS011;1480;51.456;6.670;2022-11-15T14:16:38;5.10;;;1.23;;
2940;SDS011;1480;51.456;6.670;2022-11-15T14:19:09;3.70;;;1.40;;
2940;SDS011;1480;51.456;6.670;2022-11-15T14:24:39;4.63;;;1.40;;
2940;SDS011;1480;51.456;6.670;2022-11-15T14:27:22;3.00;;;1.47;;
2940;SDS011;1480;51.456;6.670;2022-11-15T14:29:51;5.00;;;1.43;;
2940;SDS011;1480;51.456;6.670;2022-11-15T14:32:19;2.83;;;1.63;;
2940;SDS011;1480;51.456;6.670;2022-11-15T14:34:47;5.80;;;1.60;;
2940;SDS011;1480;51.456;6.670;2022-11-15T14:37:20;4.70;;;1.47;;
2940;SDS011;1480;51.456;6.670;2022-11-15T14:39:49;7.23;;;2.63;;
2940;SDS011;1480;51.456;6.670;2022-11-15T14:42:16;2.70;;;1.67;;
2940;SDS011;1480;51.456;6.670;2022-11-15T14:44:45;2.83;;;1.60;;
2940;SDS011;1480;51.456;6.670;2022-11-15T14:47:12;5.40;;;2.27;;
2940;SDS011;1480;51.456;6.670;2022-11-15T14:49:40;4.77;;;2.03;;
2940;SDS011;1480;51.456;6.670;2022-11-15T14:52:19;5.43;;;1.67;;
2940;SDS011;1480;51.456;6.670;2022-11-15T14:54:51;3.83;;;1.90;;
2940;SDS011;1480;51.456;6.670;2022-11-15T14:57:18;3.77;;;1.97;;
2940;SDS011;1480;51.456;6.670;2022-11-15T14:59:46;5.80;;;1.40;;
2940;SDS011;1480;51.456;6.670;2022-11-15T15:02:15;3.67;;;1.50;;
2940;SDS011;1480;51.456;6.670;2022-11-15T15:04:44;3.80;;;1.40;;
2940;SDS011;1480;51.456;6.670;2022-11-15T15:07:11;13.90;;;2.10;;
2940;SDS011;1480;51.456;6.670;2022-11-15T15:09:38;5.23;;;2.13;;
2940;SDS011;1480;51.456;6.670;2022-11-15T15:12:05;4.10;;;1.77;;
2940;SDS011;1480;51.456;6.670;2022-11-15T15:14:40;5.57;;;2.70;;
2940;SDS011;1480;51.456;6.670;2022-11-15T15:17:08;3.63;;;2.10;;
2940;SDS011;1480;51.456;6.670;2022-11-15T15:19:35;4.83;;;2.13;;
2940;SDS011;1480;51.456;6.670;2022-11-15T15:22:02;3.87;;;1.67;;
2940;SDS011;1480;51.456;6.670;2022-11-15T15:24:29;3.33;;;2.23;;
2940;SDS011;1480;51.456;6.670;2022-11-15T15:26:56;3.50;;;2.23;;
2940;SDS011;1480;51.456;6.670;2022-11-15T15:29:23;5.20;;;2.70;;
2940;SDS011;1480;51.456;6.670;2022-11-15T15:31:50;6.50;;;3.73;;
2940;SDS011;1480;51.456;6.670;2022-11-15T15:34:18;5.10;;;2.90;;
2940;SDS011;1480;51.456;6.670;2022-11-15T15:36:45;6.50;;;2.93;;
2940;SDS011;1480;51.456;6.670;2022-11-15T15:39:12;5.20;;;2.43;;
2940;SDS011;1480;51.456;6.670;2022-11-15T15:41:39;4.47;;;2.43;;
2940;SDS011;1480;51.456;6.670;2022-11-15T15:44:06;6.33;;;2.53;;
2940;SDS011;1480;51.456;6.670;2022-11-15T15:46:33;6.27;;;2.63;;
2940;SDS011;1480;51.456;6.670;2022-11-15T15:49:00;6.27;;;3.30;;
2940;SDS011;1480;51.456;6.670;2022-11-15T15:51:28;5.00;;;3.20;;
2940;SDS011;1480;51.456;6.670;2022-11-15T15:53:55;8.27;;;2.80;;
2940;SDS011;1480;51.456;6.670;2022-11-15T15:56:23;5.47;;;3.37;;
2940;SDS011;1480;51.456;6.670;2022-11-15T15:58:50;5.50;;;3.90;;
2940;SDS011;1480;51.456;6.670;2022-11-15T16:01:18;5.93;;;3.07;;
2940;SDS011;1480;51.456;6.670;2022-11-15T16:03:45;3.97;;;3.03;;
2940;SDS011;1480;51.456;6.670;2022-11-15T16:06:34;5.67;;;3.10;;
2940;SDS011;1480;51.456;6.670;2022-11-15T16:09:03;6.90;;;3.33;;
2940;SDS011;1480;51.456;6.670;2022-11-15T16:11:30;5.10;;;2.97;;
2940;SDS011;1480;51.456;6.670;2022-11-15T16:13:57;6.60;;;3.30;;
2940;SDS011;1480;51.456;6.670;2022-11-15T16:16:25;5.27;;;3.50;;
2940;SDS011;1480;51.456;6.670;2022-11-15T16:18:52;5.30;;;3.37;;
2940;SDS011;1480;51.456;6.670;2022-11-15T16:21:19;5.80;;;3.40;;
2940;SDS011;1480;51.456;6.670;2022-11-15T16:23:47;12.43;;;3.47;;
2940;SDS011;1480;51.456;6.670;2022-11-15T16:26:28;6.30;;;3.57;;
2940;SDS011;1480;51.456;6.670;2022-11-15T16:28:55;6.13;;;2.60;;
2940;SDS011;1480;51.456;6.670;2022-11-15T16:31:23;4.90;;;2.63;;
2940;SDS011;1480;51.456;6.670;2022-11-15T16:33:50;5.83;;;3.10;;
2940;SDS011;1480;51.456;6.670;2022-11-15T16:36:21;7.90;;;3.20;;
2940;SDS011;1480;51.456;6.670;2022-11-15T16:38:52;5.03;;;2.63;;
2940;SDS011;1480;51.456;6.670;2022-11-15T16:41:19;8.20;;;3.07;;
2940;SDS011;1480;51.456;6.670;2022-11-15T16:43:46;4.97;;;3.20;;
2940;SDS011;1480;51.456;6.670;2022-11-15T16:46:16;6.93;;;3.70;;
2940;SDS011;1480;51.456;6.670;2022-11-15T16:48:44;6.40;;;2.70;;
2940;SDS011;1480;51.456;6.670;2022-11-15T16:51:12;4.53;;;2.47;;
2940;SDS011;1480;51.456;6.670;2022-11-15T16:53:39;4.37;;;2.40;;
2940;SDS011;1480;51.456;6.670;2022-11-15T16:56:16;8.13;;;2.40;;
2940;SDS011;1480;51.456;6.670;2022-11-15T16:58:48;4.93;;;3.20;;